sensor_id;sensor_type;location;lat;lon;timestamp;pressure;altitude;pressure_sealevel;temperature;humidity
8894;BME280;4483;48.622;9.230;2023-03-19T00:02:23;97596.19;;;10.03;76.34
8894;BME280;4483;48.622;9.230;2023-03-19T00:04:49;97596.19;;;10.03;77.13
8894;BME280;4483;48.622;9.230;2023-03-19T00:07:16;97589.44;;;10.00;77.16
8894;BME280;4483;48.622;9.230;2023-03-19T00:09:44;97586.16;;;9.97;76.80
8894;BME280;4483;48.622;9.230;2023-03-19T00:12:12;97596.53;;;9.95;76.63
8894;BME280;4483;48.622;9.230;2023-03-19T00:14:39;97594.78;;;9.96;77.17
8894;BME280;4483;48.622;9.230;2023-03-19T00:17:06;97594.91;;;9.93;76.85
8894;BME280;4483;48.622;9.230;2023-03-19T00:19:33;97596.66;;;9.92;77.56
8894;BME280;4483;48.622;9.230;2023-03-19T00:21:59;97599.22;;;9.92;77.87
8894;BME280;4483;48.622;9.230;2023-03-19T00:24:26;97601.03;;;9.90;77.09
8894;BME280;4483;48.622;9.230;2023-03-19T00:26:56;97602.06;;;9.86;77.70
8894;BME280;4483;48.622;9.230;2023-03-19T00:29:22;97596.28;;;9.81;77.93
8894;BME280;4483;48.622;9.230;2023-03-19T00:31:49;97597.09;;;9.82;77.71
8894;BME280;4483;48.622;9.230;2023-03-19T00:34:15;97603.13;;;9.81;77.86
8894;BME280;4483;48.622;9.230;2023-03-19T00:36:43;97599.72;;;9.80;77.87
8894;BME280;4483;48.622;9.230;2023-03-19T00:39:10;97606.56;;;9.81;78.83
8894;BME280;4483;48.622;9.230;2023-03-19T00:41:36;97612.50;;;9.82;78.70
8894;BME280;4483;48.622;9.230;2023-03-19T00:44:05;97606.59;;;9.80;78.33
8894;BME280;4483;48.622;9.230;2023-03-19T00:46:32;97612.59;;;9.80;78.71
8894;BME280;4483;48.622;9.230;2023-03-19T00:48:59;97612.66;;;9.79;78.47
8894;BME280;4483;48.622;9.230;2023-03-19T00:51:25;97608.28;;;9.81;78.90
8894;BME280;4483;48.622;9.230;2023-03-19T00:53:52;97614.28;;;9.81;78.74
8894;BME280;4483;48.622;9.230;2023-03-19T00:56:19;97610.78;;;9.82;79.75
8894;BME280;4483;48.622;9.230;2023-03-19T00:58:46;97611.63;;;9.83;79.29
8894;BME280;4483;48.622;9.230;2023-03-19T01:01:15;97621.22;;;9.79;78.95
8894;BME280;4483;48.622;9.230;2023-03-19T01:03:43;97621.38;;;9.75;79.53
8894;BME280;4483;48.622;9.230;2023-03-19T01:06:10;97619.66;;;9.75;79.13
8894;BME280;4483;48.622;9.230;2023-03-19T01:08:37;97622.09;;;9.78;79.29
8894;BME280;4483;48.622;9.230;2023-03-19T01:11:07;97621.38;;;9.75;79.83
8894;BME280;4483;48.622;9.230;2023-03-19T01:13:34;97628.09;;;9.79;79.52
8894;BME280;4483;48.622;9.230;2023-03-19T01:16:01;97628.09;;;9.79;80.11
8894;BME280;4483;48.622;9.230;2023-03-19T01:18:30;97628.94;;;9.79;80.26
8894;BME280;4483;48.622;9.230;2023-03-19T01:20:57;97629.75;;;9.80;80.42
8894;BME280;4483;48.622;9.230;2023-03-19T01:23:23;97647.72;;;9.81;80.11
8894;BME280;4483;48.622;9.230;2023-03-19T01:25:50;97644.16;;;9.84;80.10
8894;BME280;4483;48.622;9.230;2023-03-19T01:28:17;97638.13;;;9.85;79.99
8894;BME280;4483;48.622;9.230;2023-03-19T01:30:44;97654.41;;;9.85;79.74
8894;BME280;4483;48.622;9.230;2023-03-19T01:33:11;97660.38;;;9.86;79.73
8894;BME280;4483;48.622;9.230;2023-03-19T01:35:39;97656.09;;;9.86;80.31
8894;BME280;4483;48.622;9.230;2023-03-19T01:38:08;97655.25;;;9.86;80.21
8894;BME280;4483;48.622;9.230;2023-03-19T01:40:34;97655.25;;;9.86;80.37
8894;BME280;4483;48.622;9.230;2023-03-19T01:43:13;97658.84;;;9.82;80.37
8894;BME280;4483;48.622;9.230;2023-03-19T01:45:41;97651.09;;;9.82;80.67
8894;BME280;4483;48.622;9.230;2023-03-19T01:48:16;97656.97;;;9.85;80.24
8894;BME280;4483;48.622;9.230;2023-03-19T01:50:47;97667.22;;;9.87;80.18
8894;BME280;4483;48.622;9.230;2023-03-19T01:53:19;97662.09;;;9.87;80.27
8894;BME280;4483;48.622;9.230;2023-03-19T01:55:47;97658.66;;;9.86;80.75
8894;BME280;4483;48.622;9.230;2023-03-19T01:58:14;97661.31;;;9.85;80.53
8894;BME280;4483;48.622;9.230;2023-03-19T02:00:41;97670.03;;;9.81;80.72
8894;BME280;4483;48.622;9.230;2023-03-19T02:03:08;97661.53;;;9.79;80.19
8894;BME280;4483;48.622;9.230;2023-03-19T02:05:36;97668.41;;;9.78;80.63
8894;BME280;4483;48.622;9.230;2023-03-19T02:08:08;97660.63;;;9.80;80.58
8894;BME280;4483;48.622;9.230;2023-03-19T02:10:36;97665.53;;;9.86;80.80
8894;BME280;4483;48.622;9.230;2023-03-19T02:13:03;97665.28;;;9.92;79.77
8894;BME280;4483;48.622;9.230;2023-03-19T02:15:31;97665.88;;;9.98;80.50
8894;BME280;4483;48.622;9.230;2023-03-19T02:17:57;97654.75;;;9.98;80.36
8894;BME280;4483;48.622;9.230;2023-03-19T02:20:27;97661.31;;;10.05;80.68
8894;BME280;4483;48.622;9.230;2023-03-19T02:23:03;97678.22;;;10.12;80.70
8894;BME280;4483;48.622;9.230;2023-03-19T02:25:39;97667.72;;;10.17;80.27
8894;BME280;4483;48.622;9.230;2023-03-19T02:28:11;97676.28;;;10.17;80.54
8894;BME280;4483;48.622;9.230;2023-03-19T02:30:41;97675.56;;;10.13;80.88
8894;BME280;4483;48.622;9.230;2023-03-19T02:33:10;97676.53;;;10.11;80.92
8894;BME280;4483;48.622;9.230;2023-03-19T02:35:38;97680.94;;;10.07;81.08
8894;BME280;4483;48.622;9.230;2023-03-19T02:38:05;97674.78;;;10.11;81.52
8894;BME280;4483;48.622;9.230;2023-03-19T02:40:35;97682.44;;;10.13;82.24
8894;BME280;4483;48.622;9.230;2023-03-19T02:43:03;97687.41;;;10.18;81.94
8894;BME280;4483;48.622;9.230;2023-03-19T02:45:32;97683.13;;;10.18;82.38
8894;BME280;4483;48.622;9.230;2023-03-19T02:47:58;97689.16;;;10.17;83.00
8894;BME280;4483;48.622;9.230;2023-03-19T02:50:25;97685.72;;;10.17;84.03
8894;BME280;4483;48.622;9.230;2023-03-19T02:52:52;97688.31;;;10.17;83.89
8894;BME280;4483;48.622;9.230;2023-03-19T02:55:19;97683.16;;;10.17;85.54
8894;BME280;4483;48.622;9.230;2023-03-19T02:57:46;97681.44;;;10.17;85.59
8894;BME280;4483;48.622;9.230;2023-03-19T03:00:14;97680.59;;;10.17;86.60
8894;BME280;4483;48.622;9.230;2023-03-19T03:02:44;97682.44;;;10.13;86.48
8894;BME280;4483;48.622;9.230;2023-03-19T03:05:11;97692.81;;;10.11;87.68
8894;BME280;4483;48.622;9.230;2023-03-19T03:07:38;97697.91;;;10.13;87.37
8894;BME280;4483;48.622;9.230;2023-03-19T03:10:08;97704.84;;;10.11;88.64
8894;BME280;4483;48.622;9.230;2023-03-19T03:12:35;97700.72;;;10.07;88.64
8894;BME280;4483;48.622;9.230;2023-03-19T03:15:03;97697.41;;;10.03;89.50
8894;BME280;4483;48.622;9.230;2023-03-19T03:17:30;97702.69;;;10.00;89.84
8894;BME280;4483;48.622;9.230;2023-03-19T03:19:59;97708.66;;;10.01;90.41
8894;BME280;4483;48.622;9.230;2023-03-19T03:22:25;97707.88;;;9.99;91.31
8894;BME280;4483;48.622;9.230;2023-03-19T03:24:52;97714.84;;;9.97;91.11
8894;BME280;4483;48.622;9.230;2023-03-19T03:27:18;97706.34;;;9.95;91.50
8894;BME280;4483;48.622;9.230;2023-03-19T03:29:45;97704.75;;;9.92;93.08
8894;BME280;4483;48.622;9.230;2023-03-19T03:32:13;97701.31;;;9.92;93.50
8894;BME280;4483;48.622;9.230;2023-03-19T03:34:40;97694.63;;;9.88;92.79
8894;BME280;4483;48.622;9.230;2023-03-19T03:37:08;97699.06;;;9.84;93.80
8894;BME280;4483;48.622;9.230;2023-03-19T03:39:35;97698.41;;;9.79;93.76
8894;BME280;4483;48.622;9.230;2023-03-19T03:42:02;97701.94;;;9.77;94.54
8894;BME280;4483;48.622;9.230;2023-03-19T03:44:28;97706.22;;;9.76;95.67
8894;BME280;4483;48.622;9.230;2023-03-19T03:46:55;97707.19;;;9.74;95.90
8894;BME280;4483;48.622;9.230;2023-03-19T03:49:22;97708.94;;;9.73;96.34
8894;BME280;4483;48.622;9.230;2023-03-19T03:51:49;97717.50;;;9.74;96.33
8894;BME280;4483;48.622;9.230;2023-03-19T03:54:17;97729.56;;;9.72;96.29
8894;BME280;4483;48.622;9.230;2023-03-19T03:56:43;97721.06;;;9.70;96.78
8894;BME280;4483;48.622;9.230;2023-03-19T03:59:10;97723.72;;;9.68;97.21
8894;BME280;4483;48.622;9.230;2023-03-19T04:01:37;97717.72;;;9.68;97.76
8894;BME280;4483;48.622;9.230;2023-03-19T04:04:03;97722.03;;;9.67;98.41
8894;BME280;4483;48.622;9.230;2023-03-19T04:06:30;97716.94;;;9.66;97.93
8894;BME280;4483;48.622;9.230;2023-03-19T04:08:57;97717.84;;;9.65;98.65
8894;BME280;4483;48.622;9.230;2023-03-19T04:11:25;97719.66;;;9.63;98.68
8894;BME280;4483;48.622;9.230;2023-03-19T04:13:53;97723.94;;;9.62;99.08
8894;BME280;4483;48.622;9.230;2023-03-19T04:16:20;97723.09;;;9.62;99.29
8894;BME280;4483;48.622;9.230;2023-03-19T04:18:47;97722.28;;;9.61;100.00
8894;BME280;4483;48.622;9.230;2023-03-19T04:21:14;97724.78;;;9.63;99.56
8894;BME280;4483;48.622;9.230;2023-03-19T04:23:40;97723.94;;;9.62;100.00
8894;BME280;4483;48.622;9.230;2023-03-19T04:26:07;97720.53;;;9.62;100.00
8894;BME280;4483;48.622;9.230;2023-03-19T04:28:35;97730.00;;;9.61;100.00
8894;BME280;4483;48.622;9.230;2023-03-19T04:31:04;97722.31;;;9.60;100.00
8894;BME280;4483;48.622;9.230;2023-03-19T04:33:31;97730.00;;;9.61;100.00
8894;BME280;4483;48.622;9.230;2023-03-19T04:35:59;97729.94;;;9.63;100.00
8894;BME280;4483;48.622;9.230;2023-03-19T04:38:25;97728.25;;;9.62;100.00
8894;BME280;4483;48.622;9.230;2023-03-19T04:40:53;97722.31;;;9.60;100.00
8894;BME280;4483;48.622;9.230;2023-03-19T04:43:20;97733.44;;;9.60;100.00
8894;BME280;4483;48.622;9.230;2023-03-19T04:45:48;97731.81;;;9.58;100.00
8894;BME280;4483;48.622;9.230;2023-03-19T04:48:15;97730.28;;;9.54;100.00
8894;BME280;4483;48.622;9.230;2023-03-19T04:50:42;97733.72;;;9.53;100.00
8894;BME280;4483;48.622;9.230;2023-03-19T04:53:09;97739.72;;;9.53;100.00
8894;BME280;4483;48.622;9.230;2023-03-19T04:55:36;97734.66;;;9.52;100.00
8894;BME280;4483;48.622;9.230;2023-03-19T04:58:03;97742.44;;;9.50;100.00
8894;BME280;4483;48.622;9.230;2023-03-19T05:00:30;97739.84;;;9.50;100.00
8894;BME280;4483;48.622;9.230;2023-03-19T05:02:58;97744.16;;;9.50;100.00
8894;BME280;4483;48.622;9.230;2023-03-19T05:05:25;97750.00;;;9.53;100.00
8894;BME280;4483;48.622;9.230;2023-03-19T05:07:52;97752.47;;;9.56;100.00
8894;BME280;4483;48.622;9.230;2023-03-19T05:10:19;97757.59;;;9.56;100.00
8894;BME280;4483;48.622;9.230;2023-03-19T05:12:46;97762.69;;;9.58;100.00
8894;BME280;4483;48.622;9.230;2023-03-19T05:15:13;97764.38;;;9.59;100.00
8894;BME280;4483;48.622;9.230;2023-03-19T05:17:40;97762.69;;;9.58;100.00
8894;BME280;4483;48.622;9.230;2023-03-19T05:20:10;97769.66;;;9.56;100.00
8894;BME280;4483;48.622;9.230;2023-03-19T05:22:37;97766.28;;;9.54;100.00
8894;BME280;4483;48.622;9.230;2023-03-19T05:25:04;97770.59;;;9.53;100.00
8894;BME280;4483;48.622;9.230;2023-03-19T05:27:31;97764.59;;;9.53;100.00
8894;BME280;4483;48.622;9.230;2023-03-19T05:29:58;97774.09;;;9.51;100.00
8894;BME280;4483;48.622;9.230;2023-03-19T05:32:25;97771.47;;;9.52;100.00
8894;BME280;4483;48.622;9.230;2023-03-19T05:34:52;97770.72;;;9.50;100.00
8894;BME280;4483;48.622;9.230;2023-03-19T05:37:20;97775.84;;;9.50;100.00
8894;BME280;4483;48.622;9.230;2023-03-19T05:39:47;97768.97;;;9.51;100.00
8894;BME280;4483;48.622;9.230;2023-03-19T05:42:14;97769.09;;;9.48;100.00
8894;BME280;4483;48.622;9.230;2023-03-19T05:44:40;97768.34;;;9.44;100.00
8894;BME280;4483;48.622;9.230;2023-03-19T05:47:09;97764.94;;;9.44;100.00
8894;BME280;4483;48.622;9.230;2023-03-19T05:49:36;97761.59;;;9.42;100.00
8894;BME280;4483;48.622;9.230;2023-03-19T05:52:03;97764.09;;;9.43;100.00
8894;BME280;4483;48.622;9.230;2023-03-19T05:54:31;97766.63;;;9.45;100.00
8894;BME280;4483;48.622;9.230;2023-03-19T05:56:58;97770.94;;;9.44;100.00
8894;BME280;4483;48.622;9.230;2023-03-19T05:59:25;97788.88;;;9.46;100.00
8894;BME280;4483;48.622;9.230;2023-03-19T06:01:52;97793.88;;;9.49;100.00
8894;BME280;4483;48.622;9.230;2023-03-19T06:04:18;97793.78;;;9.52;100.00
8894;BME280;4483;48.622;9.230;2023-03-19T06:06:45;97798.94;;;9.52;100.00
8894;BME280;4483;48.622;9.230;2023-03-19T06:09:12;97797.16;;;9.54;100.00
8894;BME280;4483;48.622;9.230;2023-03-19T06:11:39;97795.41;;;9.54;100.00
8894;BME280;4483;48.622;9.230;2023-03-19T06:14:07;97791.03;;;9.56;100.00
8894;BME280;4483;48.622;9.230;2023-03-19T06:16:33;97799.66;;;9.55;100.00
8894;BME280;4483;48.622;9.230;2023-03-19T06:19:00;97807.25;;;9.58;100.00
8894;BME280;4483;48.622;9.230;2023-03-19T06:21:27;97804.88;;;9.54;100.00
8894;BME280;4483;48.622;9.230;2023-03-19T06:23:55;97804.09;;;9.52;100.00
8894;BME280;4483;48.622;9.230;2023-03-19T06:26:22;97808.38;;;9.51;100.00
8894;BME280;4483;48.622;9.230;2023-03-19T06:28:50;97810.00;;;9.54;100.00
8894;BME280;4483;48.622;9.230;2023-03-19T06:31:17;97816.69;;;9.58;100.00
8894;BME280;4483;48.622;9.230;2023-03-19T06:33:44;97819.09;;;9.62;100.00
8894;BME280;4483;48.622;9.230;2023-03-19T06:36:10;97821.53;;;9.67;100.00
8894;BME280;4483;48.622;9.230;2023-03-19T06:38:37;97822.19;;;9.72;100.00
8894;BME280;4483;48.622;9.230;2023-03-19T06:41:04;97826.19;;;9.79;100.00
8894;BME280;4483;48.622;9.230;2023-03-19T06:43:31;97824.28;;;9.84;100.00
8894;BME280;4483;48.622;9.230;2023-03-19T06:46:03;97819.78;;;9.89;100.00
8894;BME280;4483;48.622;9.230;2023-03-19T06:48:31;97817.84;;;9.95;100.00
8894;BME280;4483;48.622;9.230;2023-03-19T06:50:58;97822.78;;;10.00;100.00
8894;BME280;4483;48.622;9.230;2023-03-19T06:53:25;97813.91;;;10.08;100.00
8894;BME280;4483;48.622;9.230;2023-03-19T06:55:51;97817.09;;;10.15;100.00
8894;BME280;4483;48.622;9.230;2023-03-19T06:58:18;97818.53;;;10.22;100.00
8894;BME280;4483;48.622;9.230;2023-03-19T07:00:46;97814.09;;;10.26;100.00
8894;BME280;4483;48.622;9.230;2023-03-19T07:03:14;97807.09;;;10.29;100.00
8894;BME280;4483;48.622;9.230;2023-03-19T07:05:40;97800.25;;;10.28;100.00
8894;BME280;4483;48.622;9.230;2023-03-19T07:08:07;97802.72;;;10.31;100.00
8894;BME280;4483;48.622;9.230;2023-03-19T07:10:36;97803.50;;;10.33;100.00
8894;BME280;4483;48.622;9.230;2023-03-19T07:13:03;97803.31;;;10.38;100.00
8894;BME280;4483;48.622;9.230;2023-03-19T07:15:30;97803.19;;;10.41;100.00
8894;BME280;4483;48.622;9.230;2023-03-19T07:17:56;97803.81;;;10.46;100.00
8894;BME280;4483;48.622;9.230;2023-03-19T07:20:24;97805.31;;;10.51;100.00
8894;BME280;4483;48.622;9.230;2023-03-19T07:22:51;97805.22;;;10.54;100.00
8894;BME280;4483;48.622;9.230;2023-03-19T07:25:18;97811.84;;;10.60;100.00
8894;BME280;4483;48.622;9.230;2023-03-19T07:27:44;97809.91;;;10.65;100.00
8894;BME280;4483;48.622;9.230;2023-03-19T07:30:12;97802.91;;;10.68;100.00
8894;BME280;4483;48.622;9.230;2023-03-19T07:32:39;97812.81;;;10.77;100.00
8894;BME280;4483;48.622;9.230;2023-03-19T07:35:07;97822.75;;;10.86;100.00
8894;BME280;4483;48.622;9.230;2023-03-19T07:37:36;97812.03;;;10.95;100.00
8894;BME280;4483;48.622;9.230;2023-03-19T07:40:03;97813.44;;;11.02;100.00
8894;BME280;4483;48.622;9.230;2023-03-19T07:42:30;97815.63;;;11.11;100.00
8894;BME280;4483;48.622;9.230;2023-03-19T07:44:56;97811.94;;;11.17;100.00
8894;BME280;4483;48.622;9.230;2023-03-19T07:47:23;97816.00;;;11.23;100.00
8894;BME280;4483;48.622;9.230;2023-03-19T07:49:50;97817.47;;;11.28;100.00
8894;BME280;4483;48.622;9.230;2023-03-19T07:52:16;97815.56;;;11.33;100.00
8894;BME280;4483;48.622;9.230;2023-03-19T07:54:45;97816.88;;;11.42;100.00
8894;BME280;4483;48.622;9.230;2023-03-19T07:57:12;97808.88;;;11.48;100.00
8894;BME280;4483;48.622;9.230;2023-03-19T07:59:40;97816.41;;;11.52;100.00
8894;BME280;4483;48.622;9.230;2023-03-19T08:02:09;97819.69;;;11.56;100.00
8894;BME280;4483;48.622;9.230;2023-03-19T08:04:36;97816.91;;;11.60;100.00
8894;BME280;4483;48.622;9.230;2023-03-19T08:07:02;97819.28;;;11.65;100.00
8894;BME280;4483;48.622;9.230;2023-03-19T08:09:29;97825.16;;;11.68;100.00
8894;BME280;4483;48.622;9.230;2023-03-19T08:11:57;97810.53;;;11.69;100.00
8894;BME280;4483;48.622;9.230;2023-03-19T08:14:24;97812.06;;;11.73;100.00
8894;BME280;4483;48.622;9.230;2023-03-19T08:16:51;97815.34;;;11.76;100.00
8894;BME280;4483;48.622;9.230;2023-03-19T08:19:17;97816.88;;;11.80;100.00
8894;BME280;4483;48.622;9.230;2023-03-19T08:21:44;97818.19;;;11.89;100.00
8894;BME280;4483;48.622;9.230;2023-03-19T08:24:11;97812.75;;;11.95;100.00
8894;BME280;4483;48.622;9.230;2023-03-19T08:26:37;97819.16;;;12.05;100.00
8894;BME280;4483;48.622;9.230;2023-03-19T08:29:05;97813.69;;;12.11;100.00
8894;BME280;4483;48.622;9.230;2023-03-19T08:31:32;97814.19;;;12.19;100.00
8894;BME280;4483;48.622;9.230;2023-03-19T08:33:59;97808.72;;;12.25;100.00
8894;BME280;4483;48.622;9.230;2023-03-19T08:36:27;97807.59;;;12.31;100.00
8894;BME280;4483;48.622;9.230;2023-03-19T08:38:54;97814.19;;;12.36;100.00
8894;BME280;4483;48.622;9.230;2023-03-19T08:41:21;97814.06;;;12.39;100.00
8894;BME280;4483;48.622;9.230;2023-03-19T08:43:48;97812.09;;;12.44;100.00
8894;BME280;4483;48.622;9.230;2023-03-19T08:46:16;97813.72;;;12.47;100.00
8894;BME280;4483;48.622;9.230;2023-03-19T08:48:43;97812.78;;;12.48;100.00
8894;BME280;4483;48.622;9.230;2023-03-19T08:51:10;97817.75;;;12.52;100.00
8894;BME280;4483;48.622;9.230;2023-03-19T08:53:37;97815.00;;;12.55;100.00
8894;BME280;4483;48.622;9.230;2023-03-19T08:56:06;97823.16;;;12.65;100.00
8894;BME280;4483;48.622;9.230;2023-03-19T08:58:33;97814.84;;;12.75;100.00
8894;BME280;4483;48.622;9.230;2023-03-19T09:01:00;97820.34;;;12.86;100.00
8894;BME280;4483;48.622;9.230;2023-03-19T09:03:29;97815.38;;;12.99;100.00
8894;BME280;4483;48.622;9.230;2023-03-19T09:05:57;97819.81;;;13.14;100.00
8894;BME280;4483;48.622;9.230;2023-03-19T09:08:25;97819.84;;;13.30;100.00
8894;BME280;4483;48.622;9.230;2023-03-19T09:10:52;97823.34;;;13.46;98.99
8894;BME280;4483;48.622;9.230;2023-03-19T09:13:19;97819.91;;;13.61;98.29
8894;BME280;4483;48.622;9.230;2023-03-19T09:15:46;97817.94;;;13.81;96.14
8894;BME280;4483;48.622;9.230;2023-03-19T09:18:13;97819.28;;;14.20;95.11
8894;BME280;4483;48.622;9.230;2023-03-19T09:20:41;97815.78;;;14.81;92.78
8894;BME280;4483;48.622;9.230;2023-03-19T09:23:08;97808.81;;;15.40;92.82
8894;BME280;4483;48.622;9.230;2023-03-19T09:25:35;97815.00;;;15.93;90.87
8894;BME280;4483;48.622;9.230;2023-03-19T09:28:01;97806.50;;;16.59;86.86
8894;BME280;4483;48.622;9.230;2023-03-19T09:30:28;97800.13;;;17.40;85.85
8894;BME280;4483;48.622;9.230;2023-03-19T09:32:55;97806.72;;;18.06;80.11
8894;BME280;4483;48.622;9.230;2023-03-19T09:35:21;97795.34;;;18.67;78.97
8894;BME280;4483;48.622;9.230;2023-03-19T09:37:50;97794.50;;;19.01;76.05
8894;BME280;4483;48.622;9.230;2023-03-19T09:40:21;97789.81;;;19.40;71.45
8894;BME280;4483;48.622;9.230;2023-03-19T09:42:59;97794.94;;;19.85;66.77
8894;BME280;4483;48.622;9.230;2023-03-19T09:45:27;97795.13;;;20.38;66.91
8894;BME280;4483;48.622;9.230;2023-03-19T09:47:57;97776.94;;;20.88;61.70
8894;BME280;4483;48.622;9.230;2023-03-19T09:50:29;97777.38;;;20.93;57.05
8894;BME280;4483;48.622;9.230;2023-03-19T09:53:05;97778.16;;;21.26;55.44
8894;BME280;4483;48.622;9.230;2023-03-19T09:55:40;97778.91;;;21.37;52.72
8894;BME280;4483;48.622;9.230;2023-03-19T09:58:12;97779.88;;;21.16;50.41
8894;BME280;4483;48.622;9.230;2023-03-19T10:00:40;97776.59;;;20.61;51.06
8894;BME280;4483;48.622;9.230;2023-03-19T10:03:23;97773.53;;;20.56;51.10
8894;BME280;4483;48.622;9.230;2023-03-19T10:06:00;97778.03;;;21.07;50.08
8894;BME280;4483;48.622;9.230;2023-03-19T10:08:53;97766.25;;;21.42;47.62
8894;BME280;4483;48.622;9.230;2023-03-19T10:11:36;97771.41;;;21.53;46.12
8894;BME280;4483;48.622;9.230;2023-03-19T10:14:27;97769.19;;;21.28;43.29
8894;BME280;4483;48.622;9.230;2023-03-19T10:16:57;97765.09;;;20.94;42.75
8894;BME280;4483;48.622;9.230;2023-03-19T10:19:31;97766.72;;;20.85;43.66
8894;BME280;4483;48.622;9.230;2023-03-19T10:22:04;97753.56;;;20.96;43.03
8894;BME280;4483;48.622;9.230;2023-03-19T10:24:35;97758.06;;;21.06;42.19
8894;BME280;4483;48.622;9.230;2023-03-19T10:27:09;97754.78;;;21.13;41.54
8894;BME280;4483;48.622;9.230;2023-03-19T10:29:37;97762.53;;;21.15;41.94
8894;BME280;4483;48.622;9.230;2023-03-19T10:32:14;97763.72;;;21.31;41.17
8894;BME280;4483;48.622;9.230;2023-03-19T10:34:45;97755.13;;;21.50;40.78
8894;BME280;4483;48.622;9.230;2023-03-19T10:37:15;97762.78;;;21.72;39.47
8894;BME280;4483;48.622;9.230;2023-03-19T10:39:44;97759.47;;;21.70;39.59
8894;BME280;4483;48.622;9.230;2023-03-19T10:42:25;97742.59;;;21.63;39.50
8894;BME280;4483;48.622;9.230;2023-03-19T10:45:01;97740.66;;;21.55;39.84
8894;BME280;4483;48.622;9.230;2023-03-19T10:47:35;97745.06;;;21.55;39.43
8894;BME280;4483;48.622;9.230;2023-03-19T10:50:03;97742.19;;;21.28;39.73
8894;BME280;4483;48.622;9.230;2023-03-19T10:52:33;97731.03;;;21.05;39.79
8894;BME280;4483;48.622;9.230;2023-03-19T10:55:06;97736.75;;;20.99;40.40
8894;BME280;4483;48.622;9.230;2023-03-19T10:57:40;97739.19;;;21.12;40.02
8894;BME280;4483;48.622;9.230;2023-03-19T11:00:15;97742.78;;;21.41;40.04
8894;BME280;4483;48.622;9.230;2023-03-19T11:02:46;97737.53;;;21.71;40.33
8894;BME280;4483;48.622;9.230;2023-03-19T11:05:23;97740.53;;;21.96;39.55
8894;BME280;4483;48.622;9.230;2023-03-19T11:07:53;97746.00;;;21.84;39.11
8894;BME280;4483;48.622;9.230;2023-03-19T11:10:23;97739.63;;;21.77;39.41
8894;BME280;4483;48.622;9.230;2023-03-19T11:12:54;97727.94;;;21.81;39.43
8894;BME280;4483;48.622;9.230;2023-03-19T11:15:25;97739.38;;;21.80;38.97
8894;BME280;4483;48.622;9.230;2023-03-19T11:17:56;97755.34;;;21.77;38.86
8894;BME280;4483;48.622;9.230;2023-03-19T11:20:31;97734.28;;;21.58;38.37
8894;BME280;4483;48.622;9.230;2023-03-19T11:23:00;97730.03;;;21.27;38.91
8894;BME280;4483;48.622;9.230;2023-03-19T11:25:34;97730.31;;;21.03;39.32
8894;BME280;4483;48.622;9.230;2023-03-19T11:28:04;97722.63;;;20.90;39.40
8894;BME280;4483;48.622;9.230;2023-03-19T11:30:37;97726.34;;;20.88;39.37
8894;BME280;4483;48.622;9.230;2023-03-19T11:33:20;97723.41;;;20.81;39.72
8894;BME280;4483;48.622;9.230;2023-03-19T11:36:00;97722.91;;;20.87;39.48
8894;BME280;4483;48.622;9.230;2023-03-19T11:38:37;97722.38;;;20.93;39.23
8894;BME280;4483;48.622;9.230;2023-03-19T11:41:13;97726.81;;;20.93;39.18
8894;BME280;4483;48.622;9.230;2023-03-19T11:43:49;97730.47;;;21.32;38.71
8894;BME280;4483;48.622;9.230;2023-03-19T11:46:33;97721.72;;;21.52;38.18
8894;BME280;4483;48.622;9.230;2023-03-19T11:49:10;97721.56;;;21.44;37.63
8894;BME280;4483;48.622;9.230;2023-03-19T11:51:45;97715.09;;;21.48;37.97
8894;BME280;4483;48.622;9.230;2023-03-19T11:54:20;97715.81;;;21.59;37.90
8894;BME280;4483;48.622;9.230;2023-03-19T11:56:56;97714.00;;;21.90;38.04
8894;BME280;4483;48.622;9.230;2023-03-19T11:59:36;97706.13;;;21.99;37.59
8894;BME280;4483;48.622;9.230;2023-03-19T12:02:45;97703.50;;;21.99;37.48
8894;BME280;4483;48.622;9.230;2023-03-19T12:05:23;97693.88;;;22.29;36.48
8894;BME280;4483;48.622;9.230;2023-03-19T12:08:05;97701.94;;;21.78;36.23
8894;BME280;4483;48.622;9.230;2023-03-19T12:10:43;97701.63;;;21.32;37.26
8894;BME280;4483;48.622;9.230;2023-03-19T12:13:21;97711.50;;;21.49;37.76
8894;BME280;4483;48.622;9.230;2023-03-19T12:16:00;97701.88;;;21.98;37.53
8894;BME280;4483;48.622;9.230;2023-03-19T12:18:47;97683.94;;;22.23;37.39
8894;BME280;4483;48.622;9.230;2023-03-19T12:21:21;97697.56;;;21.97;36.90
8894;BME280;4483;48.622;9.230;2023-03-19T12:24:01;97701.00;;;21.49;37.28
8894;BME280;4483;48.622;9.230;2023-03-19T12:26:34;97705.03;;;21.13;37.83
8894;BME280;4483;48.622;9.230;2023-03-19T12:29:12;97702.38;;;20.92;38.41
8894;BME280;4483;48.622;9.230;2023-03-19T12:31:51;97690.94;;;20.93;38.43
8894;BME280;4483;48.622;9.230;2023-03-19T12:34:26;97690.66;;;21.08;38.58
8894;BME280;4483;48.622;9.230;2023-03-19T12:37:02;97694.66;;;21.42;38.55
8894;BME280;4483;48.622;9.230;2023-03-19T12:39:34;97700.66;;;21.72;38.13
8894;BME280;4483;48.622;9.230;2023-03-19T12:42:03;97691.09;;;22.02;37.75
8894;BME280;4483;48.622;9.230;2023-03-19T12:44:36;97678.41;;;22.26;37.45
8894;BME280;4483;48.622;9.230;2023-03-19T12:47:06;97686.28;;;21.97;37.55
8894;BME280;4483;48.622;9.230;2023-03-19T12:49:37;97690.00;;;21.55;37.72
8894;BME280;4483;48.622;9.230;2023-03-19T12:52:13;97697.19;;;21.23;38.50
8894;BME280;4483;48.622;9.230;2023-03-19T12:54:46;97689.53;;;20.89;38.99
8894;BME280;4483;48.622;9.230;2023-03-19T12:57:20;97692.81;;;20.61;39.43
8894;BME280;4483;48.622;9.230;2023-03-19T12:59:55;97682.19;;;20.42;39.95
8894;BME280;4483;48.622;9.230;2023-03-19T13:02:30;97683.53;;;20.37;40.11
8894;BME280;4483;48.622;9.230;2023-03-19T13:05:02;97680.88;;;20.27;40.19
8894;BME280;4483;48.622;9.230;2023-03-19T13:07:38;97676.72;;;20.14;40.37
8894;BME280;4483;48.622;9.230;2023-03-19T13:10:10;97670.91;;;20.21;40.52
8894;BME280;4483;48.622;9.230;2023-03-19T13:12:37;97675.50;;;20.49;40.70
8894;BME280;4483;48.622;9.230;2023-03-19T13:15:09;97676.66;;;20.77;40.44
8894;BME280;4483;48.622;9.230;2023-03-19T13:17:51;97674.41;;;20.93;40.01
8894;BME280;4483;48.622;9.230;2023-03-19T13:20:26;97677.22;;;20.80;40.33
8894;BME280;4483;48.622;9.230;2023-03-19T13:22:58;97675.34;;;20.62;40.14
8894;BME280;4483;48.622;9.230;2023-03-19T13:25:30;97673.84;;;20.48;40.58
8894;BME280;4483;48.622;9.230;2023-03-19T13:27:58;97670.41;;;20.27;41.10
8894;BME280;4483;48.622;9.230;2023-03-19T13:30:26;97670.34;;;20.07;41.26
8894;BME280;4483;48.622;9.230;2023-03-19T13:33:02;97679.06;;;19.96;41.57
8894;BME280;4483;48.622;9.230;2023-03-19T13:35:37;97670.19;;;19.76;41.57